Time;durP1;ratioP1;P1;durP2;ratioP2;P2;SDS_P1;SDS_P2;PMS_P1;PMS_P2;Temp;Humidity;BMP_temperature;BMP_pressure;BME280_temperature;BME280_humidity;BME280_pressure;Samples;Min_cycle;Max_cycle;Signal;HPM_P1;HPM_P2
2021/12/19 00:04:01;;;;;;;13.73;9.43;;;8.80;95.70;;;;;;969907;147;27365;-73
2021/12/19 00:09:04;;;;;;;13.17;9.07;;;8.70;95.90;;;;;;958644;147;27615;-73
2021/12/19 00:11:31;;;;;;;15.70;11.47;;;8.70;96.00;;;;;;969369;147;27397;-72
2021/12/19 00:13:57;;;;;;;16.73;11.33;;;8.70;96.10;;;;;;975337;147;27354;-73
2021/12/19 00:16:23;;;;;;;13.47;10.37;;;8.80;96.10;;;;;;971440;144;27250;-73
2021/12/19 00:18:52;;;;;;;14.50;10.77;;;8.70;96.10;;;;;;956637;147;27462;-73
2021/12/19 00:21:17;;;;;;;16.70;11.60;;;8.70;96.20;;;;;;984891;143;27280;-73
2021/12/19 00:23:43;;;;;;;18.53;11.57;;;8.80;96.20;;;;;;983557;145;27328;-73
2021/12/19 00:26:10;;;;;;;18.50;12.57;;;8.80;96.20;;;;;;983517;145;27409;-73
2021/12/19 00:28:36;;;;;;;16.90;11.87;;;8.80;96.20;;;;;;984409;145;27265;-73
2021/12/19 00:31:03;;;;;;;16.43;11.77;;;8.80;96.20;;;;;;980749;145;27402;-73
2021/12/19 00:33:29;;;;;;;17.90;12.83;;;8.90;96.20;;;;;;969805;146;27482;-73
2021/12/19 00:35:59;;;;;;;18.00;12.57;;;8.80;96.20;;;;;;978033;145;27298;-73
2021/12/19 00:38:25;;;;;;;18.23;12.27;;;8.90;96.30;;;;;;973152;146;27428;-73
2021/12/19 00:40:52;;;;;;;20.27;13.80;;;8.90;96.20;;;;;;974884;146;28096;-72
2021/12/19 00:43:34;;;;;;;18.97;13.03;;;8.90;95.90;;;;;;972728;146;27275;-74
2021/12/19 00:45:52;;;;;;;20.80;13.77;;;8.90;96.20;;;;;;974645;146;27317;-73
2021/12/19 00:48:17;;;;;;;20.57;13.83;;;8.90;96.10;;;;;;974637;146;27281;-73
2021/12/19 00:50:44;;;;;;;20.90;14.17;;;9.00;96.10;;;;;;971291;146;27346;-73
2021/12/19 00:53:11;;;;;;;18.93;12.83;;;9.00;96.10;;;;;;969064;144;27354;-72
2021/12/19 00:55:37;;;;;;;17.47;12.97;;;9.00;96.10;;;;;;973051;146;27293;-72
2021/12/19 00:58:04;;;;;;;20.00;13.23;;;9.00;96.10;;;;;;979990;146;27264;-73
2021/12/19 01:00:30;;;;;;;20.23;13.43;;;9.00;96.10;;;;;;976932;146;27374;-73
2021/12/19 01:02:59;;;;;;;21.63;13.20;;;9.00;96.10;;;;;;971415;146;27385;-74
2021/12/19 01:05:24;;;;;;;20.33;13.77;;;9.00;96.10;;;;;;973472;146;27289;-73
2021/12/19 01:07:53;;;;;;;21.73;13.47;;;9.00;96.00;;;;;;973465;146;27316;-73
2021/12/19 01:10:19;;;;;;;20.27;14.53;;;9.00;95.90;;;;;;970441;146;27270;-73
2021/12/19 01:12:46;;;;;;;23.93;15.20;;;9.10;96.00;;;;;;976045;146;27329;-73
2021/12/19 01:15:12;;;;;;;20.90;13.53;;;9.00;96.00;;;;;;977415;146;27296;-73
2021/12/19 01:17:39;;;;;;;20.17;13.90;;;9.00;96.00;;;;;;975852;145;27224;-73
2021/12/19 01:20:06;;;;;;;19.40;13.90;;;9.00;96.00;;;;;;969319;146;27394;-74
2021/12/19 01:22:32;;;;;;;21.03;13.80;;;9.00;96.00;;;;;;978655;146;27313;-72
2021/12/19 01:24:59;;;;;;;21.57;13.90;;;9.00;96.00;;;;;;972351;146;27222;-73
2021/12/19 01:27:25;;;;;;;20.73;13.97;;;9.10;96.00;;;;;;970228;146;27376;-73
2021/12/19 01:29:52;;;;;;;20.93;13.77;;;9.00;95.90;;;;;;975732;146;27374;-73
2021/12/19 01:32:19;;;;;;;21.70;14.07;;;9.10;96.00;;;;;;975099;146;27359;-73
2021/12/19 01:34:45;;;;;;;20.57;13.40;;;9.00;96.00;;;;;;973244;146;27322;-73
2021/12/19 01:37:12;;;;;;;20.77;13.30;;;9.00;96.00;;;;;;960828;147;27299;-73
2021/12/19 01:39:38;;;;;;;19.10;13.17;;;9.00;96.00;;;;;;964177;147;27841;-73
2021/12/19 01:42:05;;;;;;;21.00;13.87;;;9.00;96.10;;;;;;967721;147;27239;-73
2021/12/19 01:44:32;;;;;;;17.90;12.33;;;9.10;96.10;;;;;;963446;146;27354;-73
2021/12/19 01:46:59;;;;;;;18.17;13.07;;;9.00;96.10;;;;;;970923;147;27297;-73
2021/12/19 01:49:25;;;;;;;18.80;12.03;;;9.00;96.10;;;;;;961818;146;27347;-73
2021/12/19 01:51:51;;;;;;;18.60;12.87;;;9.10;96.10;;;;;;966662;147;27327;-73
2021/12/19 01:54:18;;;;;;;15.57;11.70;;;9.00;96.00;;;;;;969967;147;27274;-73
2021/12/19 01:56:45;;;;;;;15.33;11.23;;;9.10;96.00;;;;;;966057;147;27364;-73
2021/12/19 01:59:14;;;;;;;19.07;12.40;;;9.10;96.10;;;;;;964130;147;27366;-72
2021/12/19 02:01:46;;;;;;;18.03;12.43;;;9.10;96.10;;;;;;968818;147;27346;-73
2021/12/19 02:04:13;;;;;;;14.77;10.77;;;9.10;96.20;;;;;;966260;147;27325;-73
2021/12/19 02:06:39;;;;;;;16.03;11.40;;;9.10;96.20;;;;;;970872;147;27349;-73
2021/12/19 02:09:07;;;;;;;17.13;11.60;;;9.10;96.20;;;;;;968314;146;27214;-73
2021/12/19 02:11:33;;;;;;;18.87;12.00;;;9.10;96.10;;;;;;967775;147;27768;-73
2021/12/19 02:13:59;;;;;;;15.70;11.73;;;9.10;96.00;;;;;;967658;147;27362;-73
2021/12/19 02:16:26;;;;;;;16.87;11.67;;;9.10;96.00;;;;;;967288;146;27299;-73
2021/12/19 02:18:52;;;;;;;13.93;10.80;;;9.10;96.10;;;;;;964539;147;27335;-73
2021/12/19 02:21:19;;;;;;;17.40;11.43;;;9.10;96.10;;;;;;964163;146;27282;-73
2021/12/19 02:23:45;;;;;;;15.77;11.23;;;9.10;96.10;;;;;;958883;147;27375;-73
2021/12/19 02:26:12;;;;;;;15.97;12.03;;;9.10;96.10;;;;;;965904;147;27297;-73
2021/12/19 02:28:39;;;;;;;19.57;11.73;;;9.10;96.10;;;;;;968013;147;27270;-73
2021/12/19 02:31:05;;;;;;;16.13;11.23;;;9.10;96.10;;;;;;971287;147;27270;-73
2021/12/19 02:33:36;;;;;;;16.73;11.70;;;9.10;96.10;;;;;;974422;145;27512;-73
2021/12/19 02:36:18;;;;;;;17.77;11.57;;;9.10;96.40;;;;;;984923;145;27265;-73
2021/12/19 02:49:25;;;;;;;17.23;11.33;;;9.10;96.10;;;;;;977189;145;27388;-73
2021/12/19 02:51:52;;;;;;;19.50;11.90;;;9.10;96.10;;;;;;974503;145;27257;-73
2021/12/19 02:54:18;;;;;;;15.30;10.97;;;9.10;96.10;;;;;;980016;143;27291;-73
2021/12/19 02:56:45;;;;;;;14.80;10.80;;;9.10;96.10;;;;;;984933;145;27362;-73
2021/12/19 02:59:11;;;;;;;15.57;11.07;;;9.10;96.20;;;;;;981520;145;27326;-72
2021/12/19 03:01:38;;;;;;;18.23;12.33;;;9.10;96.20;;;;;;982335;145;27238;-72
2021/12/19 03:04:06;;;;;;;15.53;11.20;;;9.10;96.30;;;;;;977974;145;27386;-73
2021/12/19 03:06:31;;;;;;;15.47;10.60;;;9.10;96.20;;;;;;982421;145;27756;-73
2021/12/19 03:09:03;;;;;;;14.80;10.40;;;9.10;96.20;;;;;;985570;145;27326;-73
2021/12/19 03:12:03;;;;;;;14.90;10.63;;;9.10;96.20;;;;;;977146;145;27738;-72
2021/12/19 03:19:20;;;;;;;14.50;9.83;;;9.10;96.10;;;;;;986536;145;27448;-73
2021/12/19 03:21:47;;;;;;;12.87;9.77;;;9.10;96.10;;;;;;977315;145;27634;-73
2021/12/19 03:24:19;;;;;;;12.67;9.90;;;9.10;96.10;;;;;;984216;145;27289;-73
2021/12/19 03:26:46;;;;;;;12.80;10.03;;;9.10;96.20;;;;;;979500;145;27737;-73
2021/12/19 03:29:12;;;;;;;11.93;9.73;;;9.10;96.20;;;;;;985868;144;27295;-73
2021/12/19 03:31:39;;;;;;;12.10;9.53;;;9.00;96.20;;;;;;979756;145;27373;-73
2021/12/19 03:34:05;;;;;;;13.97;9.47;;;9.00;96.20;;;;;;983269;145;27336;-72
2021/12/19 03:36:32;;;;;;;13.67;9.40;;;9.10;96.20;;;;;;976640;146;27652;-73
2021/12/19 03:39:02;;;;;;;10.97;8.73;;;9.10;96.20;;;;;;973559;146;27277;-73
2021/12/19 03:41:33;;;;;;;13.17;9.77;;;9.10;96.20;;;;;;974851;146;27361;-73
2021/12/19 03:43:52;;;;;;;12.20;9.77;;;9.10;96.20;;;;;;968894;146;27308;-74
2021/12/19 03:46:18;;;;;;;13.23;9.90;;;9.10;96.20;;;;;;971417;145;27281;-73
2021/12/19 03:48:48;;;;;;;12.47;9.33;;;9.10;96.20;;;;;;976803;146;27257;-75
2021/12/19 03:51:14;;;;;;;12.83;9.60;;;9.10;96.20;;;;;;969561;146;27321;-77
2021/12/19 03:53:41;;;;;;;12.90;10.03;;;9.10;96.20;;;;;;963768;146;27241;-79
2021/12/19 03:56:08;;;;;;;12.33;9.63;;;9.10;96.20;;;;;;976997;146;27285;-77
2021/12/19 03:58:34;;;;;;;12.43;9.80;;;9.10;96.20;;;;;;968446;146;27295;-78
2021/12/19 04:01:05;;;;;;;12.33;9.50;;;9.10;96.20;;;;;;973982;146;27384;-79
2021/12/19 04:03:29;;;;;;;12.87;10.33;;;9.10;96.20;;;;;;976611;146;27285;-79
2021/12/19 04:05:54;;;;;;;11.70;9.70;;;9.10;96.20;;;;;;978216;146;27716;-77
2021/12/19 04:08:21;;;;;;;12.17;9.33;;;9.10;96.20;;;;;;982266;144;27253;-78
2021/12/19 04:10:47;;;;;;;10.73;8.80;;;9.10;96.10;;;;;;974673;146;27273;-78
2021/12/19 04:13:14;;;;;;;12.07;9.67;;;9.10;96.10;;;;;;973118;146;27249;-78
2021/12/19 04:15:40;;;;;;;12.90;10.00;;;9.10;96.10;;;;;;966902;148;27374;-75
2021/12/19 04:18:07;;;;;;;13.33;9.03;;;9.10;96.10;;;;;;981516;146;27267;-78
2021/12/19 04:20:34;;;;;;;11.77;9.30;;;9.10;96.20;;;;;;974982;146;27245;-78
2021/12/19 04:23:00;;;;;;;12.40;9.83;;;9.10;96.20;;;;;;979355;146;27222;-78
2021/12/19 04:25:27;;;;;;;11.13;9.07;;;9.10;96.10;;;;;;972885;146;27843;-78
2021/12/19 04:27:53;;;;;;;11.67;9.47;;;9.10;96.10;;;;;;973818;144;27296;-79
2021/12/19 04:30:21;;;;;;;13.37;9.33;;;9.10;96.10;;;;;;977194;145;27283;-79
2021/12/19 04:32:56;;;;;;;10.90;8.93;;;9.10;96.10;;;;;;980361;146;27374;-78
2021/12/19 04:35:13;;;;;;;12.37;8.90;;;9.10;96.00;;;;;;970644;146;27329;-78
2021/12/19 04:38:26;;;;;;;11.77;9.00;;;9.10;96.00;;;;;;970740;146;27249;-78
2021/12/19 04:40:26;;;;;;;11.67;9.17;;;9.10;96.10;;;;;;973312;146;27695;-78
2021/12/19 04:51:22;;;;;;;11.73;9.07;;;9.00;96.00;;;;;;976738;146;27225;-78
2021/12/19 04:56:33;;;;;;;11.23;8.97;;;9.00;96.10;;;;;;979339;146;27381;-78
2021/12/19 04:59:07;;;;;;;12.27;9.90;;;9.00;96.10;;;;;;972954;146;27229;-77
2021/12/19 05:01:58;;;;;;;13.63;9.47;;;8.90;96.10;;;;;;968886;146;27396;-77
2021/12/19 05:14:40;;;;;;;12.87;9.03;;;8.90;96.10;;;;;;979281;146;27373;-76
2021/12/19 05:17:09;;;;;;;12.57;9.20;;;8.80;96.10;;;;;;972967;146;27257;-79
2021/12/19 05:19:46;;;;;;;12.03;9.43;;;8.80;96.20;;;;;;975616;146;27269;-77
2021/12/19 05:22:02;;;;;;;13.40;10.23;;;8.80;96.20;;;;;;969256;146;27386;-77
2021/12/19 05:27:07;;;;;;;14.37;10.43;;;8.80;96.10;;;;;;978351;146;27229;-77
2021/12/19 05:29:33;;;;;;;13.17;9.70;;;8.80;96.10;;;;;;975742;145;27372;-78
2021/12/19 05:32:00;;;;;;;12.77;9.87;;;8.80;96.10;;;;;;979538;146;27262;-78
2021/12/19 05:34:28;;;;;;;12.03;9.57;;;8.80;96.10;;;;;;974841;146;27244;-78
2021/12/19 05:47:37;;;;;;;11.07;8.97;;;8.70;95.90;;;;;;968527;147;27323;-79
2021/12/19 05:50:06;;;;;;;10.90;8.47;;;8.70;96.30;;;;;;968324;146;27274;-79
2021/12/19 05:52:33;;;;;;;12.60;8.57;;;8.70;96.40;;;;;;963668;146;27209;-79
2021/12/19 05:54:59;;;;;;;12.60;9.03;;;8.70;96.40;;;;;;967228;147;27391;-79
2021/12/19 05:57:26;;;;;;;12.03;9.03;;;8.70;96.40;;;;;;971350;146;27301;-78
2021/12/19 05:59:53;;;;;;;11.27;8.60;;;8.70;96.40;;;;;;965877;147;27361;-75
2021/12/19 06:02:19;;;;;;;12.00;9.57;;;8.70;96.40;;;;;;969543;147;27378;-79
2021/12/19 06:04:46;;;;;;;11.53;8.43;;;8.70;96.40;;;;;;967297;147;27281;-79
2021/12/19 06:07:12;;;;;;;11.33;8.53;;;8.70;96.40;;;;;;963874;147;27357;-79
2021/12/19 06:09:39;;;;;;;12.03;9.03;;;8.70;96.40;;;;;;963131;146;27253;-78
2021/12/19 06:12:06;;;;;;;11.10;8.27;;;8.80;96.10;;;;;;971098;147;27254;-79
2021/12/19 06:14:33;;;;;;;10.37;8.50;;;8.80;96.40;;;;;;966669;147;27410;-79
2021/12/19 06:16:59;;;;;;;11.07;8.77;;;8.80;96.40;;;;;;972176;146;27387;-78
2021/12/19 06:19:25;;;;;;;11.13;8.47;;;8.80;96.40;;;;;;968592;147;27266;-79
2021/12/19 06:21:52;;;;;;;12.03;8.97;;;8.80;96.40;;;;;;972152;146;27386;-78
2021/12/19 06:24:19;;;;;;;10.93;8.30;;;8.80;96.30;;;;;;959794;147;27323;-79
2021/12/19 06:26:45;;;;;;;10.37;8.37;;;8.80;96.30;;;;;;974157;147;27294;-79
2021/12/19 06:29:12;;;;;;;9.83;8.27;;;8.80;96.30;;;;;;963510;146;27303;-79
2021/12/19 06:31:38;;;;;;;11.10;8.50;;;8.80;96.20;;;;;;965838;147;27343;-78
2021/12/19 06:34:08;;;;;;;10.37;8.03;;;8.80;96.00;;;;;;960820;147;27308;-79
2021/12/19 06:36:36;;;;;;;11.93;8.30;;;8.80;96.30;;;;;;972374;146;27389;-78
2021/12/19 06:39:02;;;;;;;11.60;8.87;;;8.80;96.30;;;;;;976279;146;27345;-78
2021/12/19 06:41:28;;;;;;;9.97;7.90;;;8.80;96.30;;;;;;980113;146;27277;-79
2021/12/19 06:43:54;;;;;;;13.93;8.47;;;8.80;96.30;;;;;;972285;146;27278;-79
2021/12/19 06:46:21;;;;;;;10.03;8.77;;;8.80;96.30;;;;;;977986;146;27730;-78
2021/12/19 06:48:47;;;;;;;10.13;8.23;;;8.90;96.30;;;;;;976041;146;27297;-78
2021/12/19 06:51:14;;;;;;;9.37;7.37;;;8.80;96.30;;;;;;977180;146;27261;-79
2021/12/19 06:53:40;;;;;;;10.00;8.17;;;8.80;96.20;;;;;;981884;146;27234;-78
2021/12/19 06:56:07;;;;;;;10.43;8.20;;;8.90;96.30;;;;;;969850;145;27358;-78
2021/12/19 06:58:34;;;;;;;10.77;8.53;;;8.80;96.20;;;;;;975754;146;27365;-78
2021/12/19 07:01:00;;;;;;;10.70;8.57;;;8.90;96.30;;;;;;971248;146;27332;-78
2021/12/19 07:03:27;;;;;;;11.50;8.47;;;8.80;96.20;;;;;;973852;146;28071;-79
2021/12/19 07:05:53;;;;;;;10.97;8.83;;;8.80;96.10;;;;;;974172;144;27300;-78
2021/12/19 07:08:21;;;;;;;11.40;9.50;;;8.80;96.20;;;;;;975576;146;27398;-78
2021/12/19 07:10:47;;;;;;;11.37;8.93;;;8.80;96.20;;;;;;969796;146;27366;-78
2021/12/19 07:13:18;;;;;;;12.40;9.27;;;8.80;96.20;;;;;;966789;147;27379;-78
2021/12/19 07:15:40;;;;;;;12.63;9.23;;;8.90;96.20;;;;;;978719;146;27253;-79
2021/12/19 07:18:06;;;;;;;13.17;9.57;;;8.80;96.20;;;;;;973042;146;27302;-79
2021/12/19 07:20:33;;;;;;;10.20;8.57;;;8.80;96.20;;;;;;975996;146;28092;-77
2021/12/19 07:22:59;;;;;;;10.53;8.17;;;8.80;96.40;;;;;;981548;146;27285;-77
2021/12/19 07:25:26;;;;;;;11.77;8.30;;;8.80;96.20;;;;;;975433;144;27276;-79
2021/12/19 07:27:53;;;;;;;12.27;8.90;;;8.80;96.20;;;;;;970836;146;27381;-78
2021/12/19 07:30:19;;;;;;;9.83;7.67;;;8.90;96.60;;;;;;971777;146;27297;-77
2021/12/19 07:32:46;;;;;;;10.90;8.80;;;8.90;96.20;;;;;;972820;146;27265;-78
2021/12/19 07:35:13;;;;;;;10.80;8.63;;;8.80;96.20;;;;;;973043;143;27261;-79
2021/12/19 07:37:39;;;;;;;13.00;9.50;;;8.90;96.30;;;;;;973543;146;27278;-79
2021/12/19 07:40:17;;;;;;;11.37;9.20;;;8.90;96.30;;;;;;972968;147;27444;-79
2021/12/19 07:42:41;;;;;;;10.63;8.10;;;8.90;96.30;;;;;;963001;147;27285;-78
2021/12/19 07:45:08;;;;;;;10.43;8.00;;;8.90;96.30;;;;;;971251;147;27290;-78
2021/12/19 07:47:34;;;;;;;11.53;8.27;;;8.90;96.40;;;;;;966372;146;27245;-78
2021/12/19 07:50:01;;;;;;;11.70;9.03;;;8.90;96.40;;;;;;969961;147;27262;-77
2021/12/19 07:52:27;;;;;;;10.70;8.50;;;8.90;96.40;;;;;;966438;147;27299;-77
2021/12/19 07:54:54;;;;;;;10.83;9.10;;;8.90;96.40;;;;;;965756;147;27393;-78
2021/12/19 07:57:20;;;;;;;11.57;9.17;;;9.00;96.30;;;;;;962009;146;27302;-78
2021/12/19 07:59:47;;;;;;;9.87;8.37;;;9.00;96.20;;;;;;963919;147;27310;-77
2021/12/19 08:02:14;;;;;;;11.63;9.00;;;9.00;96.20;;;;;;967779;147;27377;-77
2021/12/19 08:04:40;;;;;;;9.43;8.07;;;9.00;96.20;;;;;;971900;147;27692;-78
2021/12/19 08:07:08;;;;;;;8.87;7.73;;;9.00;96.30;;;;;;969242;146;27306;-79
2021/12/19 08:09:39;;;;;;;10.30;8.97;;;9.00;96.30;;;;;;969122;146;27290;-77
2021/12/19 08:12:05;;;;;;;10.87;9.30;;;9.00;96.50;;;;;;973958;146;27332;-77
2021/12/19 08:14:32;;;;;;;10.53;8.60;;;9.00;96.40;;;;;;963907;147;27289;-78
2021/12/19 08:16:58;;;;;;;10.97;8.63;;;9.00;96.30;;;;;;965397;147;27257;-78
2021/12/19 08:19:25;;;;;;;9.97;8.60;;;9.00;96.30;;;;;;965929;147;27311;-79
2021/12/19 08:21:53;;;;;;;9.47;8.20;;;9.10;96.40;;;;;;964942;147;27630;-78
2021/12/19 08:24:18;;;;;;;12.73;8.10;;;9.10;96.40;;;;;;961161;146;27957;-79
2021/12/19 08:26:46;;;;;;;10.57;8.97;;;9.10;96.40;;;;;;966440;147;27322;-77
2021/12/19 08:29:11;;;;;;;11.90;9.00;;;9.20;96.30;;;;;;966673;147;28105;-77
2021/12/19 08:31:38;;;;;;;10.93;9.27;;;9.10;96.20;;;;;;969038;147;27412;-75
2021/12/19 08:34:07;;;;;;;12.20;9.67;;;9.20;96.20;;;;;;966150;147;27310;-77
2021/12/19 08:36:33;;;;;;;11.60;9.03;;;9.20;96.10;;;;;;934952;149;27310;-77
2021/12/19 08:39:00;;;;;;;11.77;8.97;;;9.20;96.10;;;;;;960317;146;27320;-77
2021/12/19 08:41:27;;;;;;;12.97;9.40;;;9.20;96.10;;;;;;951805;148;27311;-77
2021/12/19 08:43:53;;;;;;;13.43;9.70;;;9.20;96.10;;;;;;957450;148;27450;-77
2021/12/19 08:46:20;;;;;;;10.50;8.47;;;9.20;96.10;;;;;;964474;148;27261;-77
2021/12/19 08:48:46;;;;;;;19.80;10.10;;;9.20;96.10;;;;;;969435;148;27266;-77
2021/12/19 08:51:16;;;;;;;11.13;9.03;;;9.20;96.20;;;;;;963556;148;27306;-78
2021/12/19 08:53:42;;;;;;;11.40;8.80;;;9.30;96.20;;;;;;952488;150;27347;-77
2021/12/19 08:56:09;;;;;;;10.87;9.17;;;9.30;96.20;;;;;;951548;150;27418;-75
2021/12/19 08:58:35;;;;;;;11.07;9.20;;;9.30;96.50;;;;;;960024;148;27407;-78
2021/12/19 09:01:02;;;;;;;11.13;8.93;;;9.30;96.20;;;;;;965232;146;27246;-77
2021/12/19 09:03:31;;;;;;;11.60;9.23;;;9.40;96.40;;;;;;969444;145;27749;-77
2021/12/19 09:05:58;;;;;;;13.10;10.00;;;9.40;96.40;;;;;;947457;151;27311;-77
2021/12/19 09:08:24;;;;;;;12.87;9.90;;;9.40;96.30;;;;;;966685;148;27353;-78
2021/12/19 09:10:51;;;;;;;13.60;10.57;;;9.50;96.30;;;;;;951765;151;27336;-77
2021/12/19 09:13:17;;;;;;;12.87;10.43;;;9.50;96.30;;;;;;946176;151;27435;-77
2021/12/19 09:15:44;;;;;;;11.37;9.40;;;9.50;96.20;;;;;;976592;146;27297;-77
2021/12/19 09:18:11;;;;;;;12.20;9.83;;;9.60;96.20;;;;;;981179;146;27309;-77
2021/12/19 09:20:37;;;;;;;11.83;9.37;;;9.60;96.10;;;;;;973161;146;27305;-77
2021/12/19 09:23:04;;;;;;;11.90;9.40;;;9.70;96.10;;;;;;974371;146;27284;-78
2021/12/19 09:25:33;;;;;;;11.80;9.93;;;9.70;96.00;;;;;;979085;146;27241;-78
2021/12/19 09:28:00;;;;;;;12.20;9.97;;;9.80;96.00;;;;;;973865;146;27321;-77
2021/12/19 09:30:29;;;;;;;10.87;9.47;;;9.80;96.00;;;;;;974825;145;27330;-77
2021/12/19 09:32:56;;;;;;;13.87;10.53;;;9.80;95.90;;;;;;974294;146;27269;-73
2021/12/19 09:35:22;;;;;;;11.17;9.07;;;9.90;95.90;;;;;;966997;146;28001;-77
2021/12/19 09:37:49;;;;;;;11.10;9.23;;;9.90;95.90;;;;;;979262;145;27375;-77
2021/12/19 09:40:32;;;;;;;12.13;9.73;;;9.90;95.90;;;;;;975303;147;27235;-77
2021/12/19 09:42:47;;;;;;;12.37;9.67;;;10.00;95.80;;;;;;960134;146;27327;-76
2021/12/19 09:45:08;;;;;;;12.07;9.77;;;10.10;95.80;;;;;;958877;147;27396;-78
2021/12/19 09:47:35;;;;;;;11.27;9.70;;;10.10;95.70;;;;;;960440;147;27394;-78
2021/12/19 09:50:05;;;;;;;11.37;9.77;;;10.10;95.70;;;;;;944978;152;27306;-77
2021/12/19 09:52:31;;;;;;;12.10;10.07;;;10.20;95.80;;;;;;954261;149;27317;-76
2021/12/19 09:54:55;;;;;;;11.70;9.60;;;10.20;95.80;;;;;;957483;149;27297;-77
2021/12/19 09:57:21;;;;;;;12.67;9.90;;;10.30;95.80;;;;;;951192;149;27279;-78
2021/12/19 09:59:48;;;;;;;12.33;10.33;;;10.40;95.70;;;;;;957298;149;27289;-78
2021/12/19 10:02:16;;;;;;;13.33;9.90;;;10.40;95.60;;;;;;954342;147;27389;-78
2021/12/19 10:04:41;;;;;;;13.13;10.63;;;10.50;95.50;;;;;;945473;151;27290;-77
2021/12/19 10:07:08;;;;;;;13.80;10.60;;;10.50;95.30;;;;;;938876;151;27388;-75
2021/12/19 10:09:36;;;;;;;11.63;9.53;;;10.60;95.30;;;;;;965465;146;27222;-74
2021/12/19 10:12:12;;;;;;;13.37;10.63;;;10.60;95.20;;;;;;966461;147;27330;-77
2021/12/19 10:14:31;;;;;;;12.93;10.87;;;10.60;95.10;;;;;;964658;146;27311;-74
2021/12/19 10:16:57;;;;;;;12.23;10.33;;;10.70;95.00;;;;;;965960;146;27300;-74
2021/12/19 10:19:45;;;;;;;13.43;10.33;;;10.70;94.90;;;;;;965063;147;27383;-74
2021/12/19 10:22:24;;;;;;;12.07;9.70;;;10.80;94.90;;;;;;962257;147;27319;-75
2021/12/19 10:24:50;;;;;;;13.90;10.60;;;10.80;95.00;;;;;;959158;149;27268;-74
2021/12/19 10:27:32;;;;;;;12.63;9.97;;;10.90;95.00;;;;;;970895;147;27313;-74
2021/12/19 10:29:58;;;;;;;11.93;9.63;;;10.90;95.00;;;;;;962223;147;27324;-74
2021/12/19 10:32:25;;;;;;;13.27;11.13;;;11.00;94.90;;;;;;968581;147;27270;-77
2021/12/19 10:34:52;;;;;;;12.33;10.80;;;11.00;94.80;;;;;;965914;147;27324;-76
2021/12/19 10:37:30;;;;;;;12.43;10.00;;;11.00;94.60;;;;;;961414;147;27326;-77
2021/12/19 10:39:57;;;;;;;11.27;9.70;;;11.10;94.50;;;;;;976791;146;27410;-77
2021/12/19 10:42:25;;;;;;;13.80;10.33;;;11.10;94.30;;;;;;971800;146;27374;-76
2021/12/19 10:47:38;;;;;;;13.33;10.23;;;11.20;94.00;;;;;;971795;146;27254;-78
2021/12/19 10:50:05;;;;;;;14.30;10.37;;;11.20;93.90;;;;;;974537;146;27317;-76
2021/12/19 10:52:31;;;;;;;13.80;10.97;;;11.20;93.90;;;;;;977414;146;27308;-76
2021/12/19 10:54:58;;;;;;;13.30;10.33;;;11.30;93.90;;;;;;969046;146;27333;-76
2021/12/19 10:57:25;;;;;;;11.37;9.53;;;11.30;93.90;;;;;;972222;146;27347;-76
2021/12/19 10:59:51;;;;;;;12.50;9.73;;;11.30;93.90;;;;;;973007;146;27253;-77
2021/12/19 11:02:18;;;;;;;13.50;10.20;;;11.30;93.80;;;;;;976003;145;27278;-77
2021/12/19 11:04:44;;;;;;;14.40;10.57;;;11.40;93.90;;;;;;964180;148;27314;-76
2021/12/19 11:07:11;;;;;;;14.43;10.93;;;11.40;93.80;;;;;;961271;148;27398;-76
2021/12/19 11:09:38;;;;;;;11.77;10.13;;;11.40;93.80;;;;;;948868;149;27341;-77
2021/12/19 11:12:05;;;;;;;10.37;9.17;;;11.50;93.70;;;;;;970398;146;27222;-77
2021/12/19 11:14:40;;;;;;;12.87;10.23;;;11.50;93.60;;;;;;973074;146;27261;-76
2021/12/19 11:17:10;;;;;;;15.07;11.33;;;11.50;93.50;;;;;;970380;146;27343;-78
2021/12/19 11:19:36;;;;;;;12.57;10.07;;;11.60;93.40;;;;;;963021;148;27270;-77
2021/12/19 11:22:02;;;;;;;13.93;10.20;;;11.60;93.30;;;;;;964431;148;27317;-77
2021/12/19 11:24:29;;;;;;;14.40;10.17;;;11.60;93.20;;;;;;974623;145;27403;-76
2021/12/19 11:26:56;;;;;;;14.03;11.23;;;11.60;93.20;;;;;;964145;148;27298;-75
2021/12/19 11:29:22;;;;;;;14.40;11.10;;;11.70;93.10;;;;;;962380;148;27282;-76
2021/12/19 11:31:50;;;;;;;12.73;9.80;;;11.70;93.10;;;;;;958857;146;27634;-76
2021/12/19 11:34:34;;;;;;;12.93;10.67;;;11.70;93.00;;;;;;962082;148;27803;-75
2021/12/19 11:37:06;;;;;;;12.83;10.23;;;11.70;93.10;;;;;;954936;148;27755;-76
2021/12/19 11:39:33;;;;;;;11.63;9.77;;;11.80;93.10;;;;;;940688;150;28238;-76
2021/12/19 11:42:11;;;;;;;12.90;10.67;;;11.90;93.20;;;;;;939658;151;27360;-76
2021/12/19 11:44:43;;;;;;;13.63;10.70;;;11.90;93.10;;;;;;941188;149;27353;-76
2021/12/19 11:47:09;;;;;;;15.20;11.13;;;11.90;92.90;;;;;;951755;146;27304;-76
2021/12/19 11:49:31;;;;;;;12.37;10.33;;;12.00;92.80;;;;;;944534;149;27319;-73
2021/12/19 11:52:25;;;;;;;12.63;9.57;;;12.00;92.70;;;;;;937709;151;27270;-76
2021/12/19 11:55:03;;;;;;;13.30;10.20;;;12.10;92.50;;;;;;948571;149;27963;-77
2021/12/19 11:57:30;;;;;;;13.60;10.53;;;12.10;92.40;;;;;;913888;149;27327;-77
2021/12/19 11:59:57;;;;;;;14.20;10.70;;;12.10;92.30;;;;;;953656;149;27339;-76
2021/12/19 12:02:26;;;;;;;14.47;10.90;;;12.10;92.20;;;;;;953616;149;27360;-76
2021/12/19 12:05:14;;;;;;;14.33;10.33;;;12.20;92.20;;;;;;942456;151;27421;-77
2021/12/19 12:08:05;;;;;;;14.57;11.27;;;12.20;92.20;;;;;;943607;152;27425;-76
2021/12/19 12:10:49;;;;;;;12.13;9.90;;;12.20;92.00;;;;;;933045;149;27417;-78
2021/12/19 12:13:21;;;;;;;14.40;10.37;;;12.20;91.90;;;;;;927736;149;27364;-76
2021/12/19 12:15:51;;;;;;;14.93;10.57;;;12.20;91.80;;;;;;951061;149;27443;-74
2021/12/19 12:18:33;;;;;;;13.80;9.70;;;12.20;91.80;;;;;;943234;149;27325;-76
2021/12/19 12:20:59;;;;;;;12.53;10.00;;;12.20;91.70;;;;;;954489;149;27295;-76
2021/12/19 12:23:26;;;;;;;14.43;10.00;;;12.20;91.60;;;;;;951089;149;27312;-79
2021/12/19 12:25:52;;;;;;;12.43;10.67;;;12.20;91.60;;;;;;943104;149;27368;-79
2021/12/19 12:28:19;;;;;;;12.87;10.33;;;12.20;91.60;;;;;;953458;149;27397;-79
2021/12/19 12:30:45;;;;;;;13.60;11.03;;;12.20;91.60;;;;;;950215;149;27331;-77
2021/12/19 12:33:14;;;;;;;13.27;9.97;;;12.20;91.40;;;;;;964947;146;28026;-76
2021/12/19 12:35:39;;;;;;;13.90;9.97;;;12.20;91.40;;;;;;963031;147;27263;-73
2021/12/19 12:38:05;;;;;;;14.50;10.20;;;12.20;91.30;;;;;;961533;147;27362;-76
2021/12/19 12:40:49;;;;;;;13.40;10.53;;;12.20;91.20;;;;;;971220;145;27347;-77
2021/12/19 12:43:12;;;;;;;12.33;9.67;;;12.20;91.20;;;;;;978855;145;27295;-76
2021/12/19 12:45:48;;;;;;;13.33;10.47;;;12.20;91.10;;;;;;974021;145;27411;-76
2021/12/19 12:48:29;;;;;;;13.10;10.53;;;12.20;91.10;;;;;;979417;145;27315;-77
2021/12/19 12:50:56;;;;;;;13.67;10.33;;;12.20;91.10;;;;;;980223;145;27611;-76
2021/12/19 12:53:31;;;;;;;13.33;10.00;;;12.20;91.20;;;;;;975918;145;27366;-76
2021/12/19 12:56:05;;;;;;;13.93;10.57;;;12.20;91.30;;;;;;980596;145;27646;-76
2021/12/19 12:58:36;;;;;;;13.73;10.23;;;12.20;91.30;;;;;;974044;145;27312;-77
2021/12/19 13:01:15;;;;;;;12.70;10.00;;;12.20;91.40;;;;;;978414;145;27689;-77
2021/12/19 13:03:53;;;;;;;12.37;9.80;;;12.20;91.30;;;;;;978404;145;27307;-74
2021/12/19 13:06:38;;;;;;;10.30;8.43;;;12.20;91.20;;;;;;977592;145;27278;-74
2021/12/19 13:09:11;;;;;;;11.13;9.03;;;12.30;91.10;;;;;;982206;145;27363;-77
2021/12/19 13:11:37;;;;;;;13.63;9.60;;;12.30;90.90;;;;;;971542;147;27269;-77
2021/12/19 13:14:10;;;;;;;11.77;9.37;;;12.30;90.80;;;;;;956390;147;27402;-75
2021/12/19 13:16:42;;;;;;;11.20;9.00;;;12.30;90.70;;;;;;971757;145;27313;-76
2021/12/19 13:19:09;;;;;;;10.03;8.50;;;12.30;90.60;;;;;;979978;145;27309;-75
2021/12/19 13:21:54;;;;;;;10.63;8.53;;;12.30;90.50;;;;;;980303;145;27283;-76
2021/12/19 13:24:20;;;;;;;11.53;9.50;;;12.30;90.30;;;;;;980148;145;28025;-77
2021/12/19 13:26:47;;;;;;;10.30;8.67;;;12.30;90.20;;;;;;973616;145;27302;-77
2021/12/19 13:29:16;;;;;;;11.03;8.57;;;12.30;90.10;;;;;;977627;143;27321;-76
2021/12/19 13:31:42;;;;;;;10.87;8.80;;;12.30;90.00;;;;;;978996;145;27361;-76
2021/12/19 13:34:13;;;;;;;10.00;8.47;;;12.20;89.80;;;;;;980056;145;27284;-74
2021/12/19 13:36:39;;;;;;;9.43;8.20;;;12.20;89.70;;;;;;978694;145;27311;-76
2021/12/19 13:39:05;;;;;;;10.43;8.67;;;12.20;89.50;;;;;;978411;145;27370;-77
2021/12/19 13:41:32;;;;;;;10.47;8.90;;;12.20;89.50;;;;;;955386;147;27379;-77
2021/12/19 13:43:59;;;;;;;13.00;9.00;;;12.20;89.60;;;;;;947122;149;27430;-76